Time;durP1;ratioP1;P1;durP2;ratioP2;P2;SDS_P1;SDS_P2;PMS_P1;PMS_P2;Temp;Humidity;BMP_temperature;BMP_pressure;BME280_temperature;BME280_humidity;BME280_pressure;Samples;Min_cycle;Max_cycle;Signal;HPM_P1;HPM_P2
2022/06/20 00:00:13;;;;;;;;;;;14.20;99.90;;;;;;5061557;28;20015;-66
2022/06/20 00:02:43;;;;;;;;;;;14.40;99.90;;;;;;5060546;28;19924;-65
2022/06/20 00:05:13;;;;;;;;;;;14.50;99.90;;;;;;5058693;28;20008;-65
2022/06/20 00:07:41;;;;;;;;;;;14.50;99.90;;;;;;5052620;28;19925;-66
2022/06/20 00:10:08;;;;;;;;;;;14.60;99.90;;;;;;5059202;28;20014;-64
2022/06/20 00:12:36;;;;;;;;;;;14.50;99.90;;;;;;5060177;28;19963;-64
2022/06/20 00:15:04;;;;;;;;;;;14.30;99.90;;;;;;5063875;28;19991;-64
2022/06/20 00:17:30;;;;;;;;;;;14.20;99.90;;;;;;5066780;28;19928;-66
2022/06/20 00:19:57;;;;;;;;;;;14.10;99.90;;;;;;5065320;28;20443;-66
2022/06/20 00:22:24;;;;;;;;;;;14.10;99.90;;;;;;5067749;28;19935;-66
2022/06/20 00:24:51;;;;;;;;;;;14.00;99.90;;;;;;5061307;28;19956;-66
2022/06/20 00:27:17;;;;;;;;;;;14.00;99.90;;;;;;5062422;28;19932;-66
2022/06/20 00:29:46;;;;;;;;;;;13.90;99.90;;;;;;5064974;28;19982;-66
2022/06/20 00:32:13;;;;;;;;;;;13.80;99.90;;;;;;5068657;28;20019;-66
2022/06/20 00:34:39;;;;;;;;;;;13.80;99.90;;;;;;5063052;28;19966;-66
2022/06/20 00:37:07;;;;;;;;;;;13.70;99.90;;;;;;5066446;28;19963;-66
2022/06/20 00:39:34;;;;;;;;;;;13.70;99.90;;;;;;5063844;28;20372;-66
2022/06/20 00:42:02;;;;;;;;;;;13.70;99.90;;;;;;5068727;28;19975;-66
2022/06/20 00:44:30;;;;;;;;;;;13.70;99.90;;;;;;5064595;28;19964;-66
2022/06/20 00:47:01;;;;;;;;;;;13.70;99.90;;;;;;5071644;28;19931;-66
2022/06/20 00:49:29;;;;;;;;;;;13.70;99.90;;;;;;5055576;28;19925;-65
2022/06/20 00:52:00;;;;;;;;;;;13.70;99.90;;;;;;5056999;28;19983;-66
2022/06/20 00:54:30;;;;;;;;;;;13.60;99.90;;;;;;5057772;28;19978;-66
2022/06/20 00:56:59;;;;;;;;;;;13.70;99.90;;;;;;5068518;28;19931;-66
2022/06/20 00:59:29;;;;;;;;;;;13.70;99.90;;;;;;5054441;28;19925;-66
2022/06/20 01:01:56;;;;;;;;;;;13.70;99.90;;;;;;5061532;28;19990;-66
2022/06/20 01:04:26;;;;;;;;;;;13.70;99.90;;;;;;5063407;28;20338;-66
2022/06/20 01:06:54;;;;;;;;;;;13.70;99.90;;;;;;5068097;28;19978;-65
2022/06/20 01:09:22;;;;;;;;;;;13.70;99.90;;;;;;5064592;28;19959;-66
2022/06/20 01:11:50;;;;;;;;;;;13.80;99.90;;;;;;5065012;28;19925;-66
2022/06/20 01:14:22;;;;;;;;;;;13.70;99.90;;;;;;5066641;28;19925;-65
2022/06/20 01:16:49;;;;;;;;;;;13.70;99.90;;;;;;5053941;28;19925;-65
2022/06/20 01:19:23;;;;;;;;;;;13.70;99.90;;;;;;5062440;28;20352;-66
2022/06/20 01:21:51;;;;;;;;;;;13.60;99.90;;;;;;5064248;28;20027;-66
2022/06/20 01:24:27;;;;;;;;;;;13.60;99.90;;;;;;5055501;28;19924;-65
2022/06/20 01:26:57;;;;;;;;;;;13.60;99.90;;;;;;5057989;28;19977;-66
2022/06/20 01:29:25;;;;;;;;;;;13.60;99.90;;;;;;5062929;28;20432;-66
2022/06/20 01:31:54;;;;;;;;;;;13.60;99.90;;;;;;5057562;28;20004;-66
2022/06/20 01:34:22;;;;;;;;;;;13.60;99.90;;;;;;5065424;28;19925;-67
2022/06/20 01:39:35;;;;;;;;;;;13.60;99.90;;;;;;5065069;28;20055;-67
2022/06/20 01:42:20;;;;;;;;;;;13.60;99.90;;;;;;5062989;28;19978;-66
2022/06/20 01:44:49;;;;;;;;;;;13.60;99.90;;;;;;5067366;28;19931;-66
2022/06/20 01:47:15;;;;;;;;;;;13.60;99.90;;;;;;5052119;28;20334;-65
2022/06/20 01:49:44;;;;;;;;;;;13.50;99.90;;;;;;5068114;28;20007;-65
2022/06/20 01:52:15;;;;;;;;;;;13.40;99.90;;;;;;5065206;28;19999;-66
2022/06/20 01:54:44;;;;;;;;;;;13.40;99.90;;;;;;5065865;28;19978;-66
2022/06/20 01:57:12;;;;;;;;;;;13.30;99.90;;;;;;5064086;28;20366;-66
2022/06/20 01:59:43;;;;;;;;;;;13.40;99.90;;;;;;5065009;28;20668;-66
2022/06/20 02:02:11;;;;;;;;;;;13.30;99.90;;;;;;5061568;28;19991;-66
2022/06/20 02:04:39;;;;;;;;;;;13.40;99.90;;;;;;5064063;28;19931;-66
2022/06/20 02:07:07;;;;;;;;;;;13.40;99.90;;;;;;5069797;28;19924;-66
2022/06/20 02:09:34;;;;;;;;;;;13.30;99.90;;;;;;5063432;28;20015;-66
2022/06/20 02:12:02;;;;;;;;;;;13.40;99.90;;;;;;5066954;28;19924;-66
2022/06/20 02:14:31;;;;;;;;;;;13.30;99.90;;;;;;5056423;28;19971;-66
2022/06/20 02:17:00;;;;;;;;;;;13.30;99.90;;;;;;5066783;28;19931;-66
2022/06/20 02:19:30;;;;;;;;;;;13.40;99.90;;;;;;5053384;28;19968;-66
2022/06/20 02:21:58;;;;;;;;;;;13.40;99.90;;;;;;5065938;28;20027;-66
2022/06/20 02:24:26;;;;;;;;;;;13.40;99.90;;;;;;5062768;28;19960;-66
2022/06/20 02:26:54;;;;;;;;;;;13.40;99.90;;;;;;5068847;28;20066;-65
2022/06/20 02:29:22;;;;;;;;;;;13.30;99.90;;;;;;5061143;28;19924;-66
2022/06/20 02:31:51;;;;;;;;;;;13.40;99.90;;;;;;5066946;28;19925;-66
2022/06/20 02:34:18;;;;;;;;;;;13.30;99.90;;;;;;5066524;28;19947;-66
2022/06/20 02:36:46;;;;;;;;;;;13.40;99.90;;;;;;5067313;28;21419;-67
2022/06/20 02:39:13;;;;;;;;;;;13.40;99.90;;;;;;5065786;28;20011;-66
2022/06/20 02:41:41;;;;;;;;;;;13.40;99.90;;;;;;5069874;28;19971;-66
2022/06/20 02:44:11;;;;;;;;;;;13.40;99.90;;;;;;5062746;28;19960;-66
2022/06/20 02:46:39;;;;;;;;;;;13.40;99.90;;;;;;5057051;28;20019;-67
2022/06/20 02:49:09;;;;;;;;;;;13.40;99.90;;;;;;5058648;28;19964;-66
2022/06/20 02:51:37;;;;;;;;;;;13.40;99.90;;;;;;5063887;28;19974;-66
2022/06/20 02:54:06;;;;;;;;;;;13.40;99.90;;;;;;5063611;28;19956;-66
2022/06/20 02:56:35;;;;;;;;;;;13.40;99.90;;;;;;5058050;28;19924;-66
2022/06/20 02:59:04;;;;;;;;;;;13.40;99.90;;;;;;5058969;28;19931;-66
2022/06/20 03:01:35;;;;;;;;;;;13.40;99.90;;;;;;5065423;28;20019;-66
2022/06/20 03:04:02;;;;;;;;;;;13.40;99.90;;;;;;5064561;28;19947;-66
2022/06/20 03:06:31;;;;;;;;;;;13.30;99.90;;;;;;5060049;28;19931;-66
2022/06/20 03:08:59;;;;;;;;;;;13.40;99.90;;;;;;5067931;28;20024;-66
2022/06/20 03:11:29;;;;;;;;;;;13.30;99.90;;;;;;5069428;28;19931;-66
2022/06/20 03:13:57;;;;;;;;;;;13.30;99.90;;;;;;5063541;28;20381;-66
2022/06/20 03:16:24;;;;;;;;;;;13.30;99.90;;;;;;5069288;28;19924;-66
2022/06/20 03:18:51;;;;;;;;;;;13.30;99.90;;;;;;5069988;28;19946;-65
2022/06/20 03:21:19;;;;;;;;;;;13.20;99.90;;;;;;5067533;28;19995;-66
2022/06/20 03:23:45;;;;;;;;;;;13.20;99.90;;;;;;5061774;28;19967;-66
2022/06/20 03:26:15;;;;;;;;;;;13.20;99.90;;;;;;5065668;28;20007;-66
2022/06/20 03:28:44;;;;;;;;;;;13.30;99.90;;;;;;5065310;28;19924;-66
2022/06/20 03:31:11;;;;;;;;;;;13.30;99.90;;;;;;5066241;28;19972;-66
2022/06/20 03:33:38;;;;;;;;;;;13.20;99.90;;;;;;5063249;28;19955;-66
2022/06/20 03:36:06;;;;;;;;;;;13.30;99.90;;;;;;5061775;28;19984;-66
2022/06/20 03:38:34;;;;;;;;;;;13.30;99.90;;;;;;5064985;28;19931;-66
2022/06/20 03:41:01;;;;;;;;;;;13.20;99.90;;;;;;5063849;28;20357;-66
2022/06/20 03:43:28;;;;;;;;;;;13.20;99.90;;;;;;5071866;28;19924;-67
2022/06/20 03:45:58;;;;;;;;;;;13.20;99.90;;;;;;5062570;28;20017;-66
2022/06/20 03:48:26;;;;;;;;;;;13.20;99.90;;;;;;5070835;28;20003;-66
2022/06/20 03:50:54;;;;;;;;;;;13.20;99.90;;;;;;5066288;28;20470;-65
2022/06/20 03:53:32;;;;;;;;;;;13.20;99.90;;;;;;5065592;28;20023;-66
2022/06/20 03:56:04;;;;;;;;;;;13.20;99.90;;;;;;5066799;28;19924;-66
2022/06/20 03:58:34;;;;;;;;;;;13.30;99.90;;;;;;5070018;28;19924;-66
2022/06/20 04:01:05;;;;;;;;;;;13.30;99.90;;;;;;5068530;28;20016;-66
2022/06/20 04:03:35;;;;;;;;;;;13.40;99.90;;;;;;5071196;28;20008;-65
2022/06/20 04:06:05;;;;;;;;;;;13.40;99.90;;;;;;5067328;28;19982;-65
2022/06/20 04:11:16;;;;;;;;;;;13.40;99.90;;;;;;5067368;28;19924;-65
2022/06/20 04:13:47;;;;;;;;;;;13.40;99.90;;;;;;5058262;28;19924;-65
2022/06/20 04:16:19;;;;;;;;;;;13.40;99.90;;;;;;5066444;28;19994;-66
2022/06/20 04:18:48;;;;;;;;;;;13.40;99.90;;;;;;5066439;28;20016;-66
2022/06/20 04:21:20;;;;;;;;;;;13.40;99.90;;;;;;5068172;28;20395;-66
2022/06/20 04:23:51;;;;;;;;;;;13.30;99.90;;;;;;5069983;28;20024;-66
2022/06/20 04:26:21;;;;;;;;;;;13.40;99.90;;;;;;5067753;28;19979;-66
2022/06/20 04:28:50;;;;;;;;;;;13.30;99.90;;;;;;5069364;28;20111;-68
2022/06/20 04:31:21;;;;;;;;;;;13.30;99.90;;;;;;5069083;28;20024;-68
2022/06/20 04:33:50;;;;;;;;;;;13.40;99.90;;;;;;5068751;28;19967;-68
2022/06/20 04:36:20;;;;;;;;;;;13.40;99.90;;;;;;5070488;28;20019;-70
2022/06/20 04:38:50;;;;;;;;;;;13.40;99.90;;;;;;5070308;28;20011;-68
2022/06/20 04:41:18;;;;;;;;;;;13.50;99.90;;;;;;5068030;28;19976;-68
2022/06/20 04:43:48;;;;;;;;;;;13.50;99.90;;;;;;5064563;28;20386;-70
2022/06/20 04:46:19;;;;;;;;;;;13.60;99.90;;;;;;5058430;28;20361;-68
2022/06/20 04:48:48;;;;;;;;;;;13.60;99.90;;;;;;5070235;28;20020;-69
2022/06/20 04:51:17;;;;;;;;;;;13.60;99.90;;;;;;5070189;28;20121;-69
2022/06/20 04:53:45;;;;;;;;;;;13.50;99.90;;;;;;5068585;28;20021;-69
2022/06/20 04:56:13;;;;;;;;;;;13.50;99.90;;;;;;5071571;28;19924;-68
2022/06/20 04:58:40;;;;;;;;;;;13.60;99.90;;;;;;5059139;28;20015;-69
2022/06/20 05:01:08;;;;;;;;;;;13.60;99.90;;;;;;5057001;28;19930;-69
2022/06/20 05:03:37;;;;;;;;;;;13.60;99.90;;;;;;5065977;28;19972;-68
2022/06/20 05:06:07;;;;;;;;;;;13.60;99.90;;;;;;5063625;28;20035;-69
2022/06/20 05:08:35;;;;;;;;;;;13.60;99.90;;;;;;5064280;28;19925;-69
2022/06/20 05:11:04;;;;;;;;;;;13.60;99.90;;;;;;5064711;28;19928;-69
2022/06/20 05:13:35;;;;;;;;;;;13.70;99.90;;;;;;5061725;28;19925;-70
2022/06/20 05:16:02;;;;;;;;;;;13.70;99.90;;;;;;5059990;28;20693;-69
2022/06/20 05:18:33;;;;;;;;;;;13.70;99.90;;;;;;5057070;28;19925;-68
2022/06/20 05:21:03;;;;;;;;;;;13.70;99.90;;;;;;5071927;28;20376;-69
2022/06/20 05:23:34;;;;;;;;;;;13.70;99.90;;;;;;5070397;28;19925;-69
2022/06/20 05:26:01;;;;;;;;;;;13.70;99.90;;;;;;5064873;28;20369;-67
2022/06/20 05:28:29;;;;;;;;;;;13.70;99.90;;;;;;5067260;28;19931;-67
2022/06/20 05:30:56;;;;;;;;;;;13.70;99.90;;;;;;5072185;28;20015;-67
2022/06/20 05:33:26;;;;;;;;;;;13.70;99.90;;;;;;5062908;28;20510;-68
2022/06/20 05:35:55;;;;;;;;;;;13.80;99.90;;;;;;5058980;28;20350;-69
2022/06/20 05:38:25;;;;;;;;;;;13.80;99.90;;;;;;5062954;28;20364;-67
2022/06/20 05:40:54;;;;;;;;;;;13.90;99.90;;;;;;5056554;28;19928;-67
2022/06/20 05:43:21;;;;;;;;;;;14.00;99.90;;;;;;5062647;28;19924;-67
2022/06/20 05:45:49;;;;;;;;;;;14.10;99.90;;;;;;5061171;28;20031;-68
2022/06/20 05:48:16;;;;;;;;;;;14.20;99.90;;;;;;5061688;28;19931;-68
2022/06/20 05:50:47;;;;;;;;;;;14.20;99.90;;;;;;5069736;28;19924;-67
2022/06/20 05:53:17;;;;;;;;;;;14.30;99.90;;;;;;5063867;28;19924;-67
2022/06/20 05:55:45;;;;;;;;;;;14.30;99.90;;;;;;5069629;28;19974;-68
2022/06/20 05:58:16;;;;;;;;;;;14.30;99.90;;;;;;5064154;28;20292;-68
2022/06/20 06:00:43;;;;;;;;;;;14.30;99.90;;;;;;5063109;28;20304;-68
2022/06/20 06:03:12;;;;;;;;;;;14.30;99.90;;;;;;5065262;28;19932;-67
2022/06/20 06:05:40;;;;;;;;;;;14.40;99.90;;;;;;5055912;28;19962;-68
2022/06/20 06:08:13;;;;;;;;;;;14.50;99.90;;;;;;5067429;28;20031;-69
2022/06/20 06:10:42;;;;;;;;;;;14.50;99.90;;;;;;5066866;28;20051;-67
2022/06/20 06:13:16;;;;;;;;;;;14.40;99.90;;;;;;5064703;28;19932;-68
2022/06/20 06:16:46;;;;;;;;;;;14.50;99.90;;;;;;5062627;28;20383;-69
2022/06/20 06:18:34;;;;;;;;;;;14.50;99.90;;;;;;5056808;28;19925;-68
2022/06/20 06:21:00;;;;;;;;;;;14.70;99.90;;;;;;5050258;28;20015;-68
2022/06/20 06:23:27;;;;;;;;;;;14.90;99.90;;;;;;5052929;28;20011;-67
2022/06/20 06:25:54;;;;;;;;;;;14.90;99.90;;;;;;5063784;28;20006;-67
2022/06/20 06:28:23;;;;;;;;;;;15.60;99.90;;;;;;5064025;28;19986;-67
2022/06/20 06:30:53;;;;;;;;;;;15.30;99.90;;;;;;5057478;28;19924;-67
2022/06/20 06:33:23;;;;;;;;;;;15.10;99.90;;;;;;5056357;28;20418;-67
2022/06/20 06:35:52;;;;;;;;;;;15.20;99.90;;;;;;5059706;28;19931;-67
2022/06/20 06:38:22;;;;;;;;;;;15.30;99.90;;;;;;5059777;28;19929;-67
2022/06/20 06:40:49;;;;;;;;;;;15.80;99.90;;;;;;5064512;28;19928;-67
2022/06/20 06:43:19;;;;;;;;;;;16.00;99.90;;;;;;5066951;28;20015;-67
2022/06/20 06:45:49;;;;;;;;;;;16.50;99.70;;;;;;5062760;28;19929;-68
2022/06/20 06:48:17;;;;;;;;;;;17.00;97.90;;;;;;5066043;28;20361;-66
2022/06/20 06:50:46;;;;;;;;;;;17.80;97.50;;;;;;5060223;28;20015;-67
2022/06/20 06:53:15;;;;;;;;;;;18.30;94.10;;;;;;5055840;28;19964;-67
2022/06/20 06:55:44;;;;;;;;;;;19.30;92.60;;;;;;5061104;28;19979;-67
2022/06/20 06:58:15;;;;;;;;;;;17.80;91.30;;;;;;5068424;28;19935;-68
2022/06/20 07:00:44;;;;;;;;;;;16.50;95.60;;;;;;5060996;28;19975;-66
2022/06/20 07:03:15;;;;;;;;;;;16.50;97.50;;;;;;5054075;28;19931;-67
2022/06/20 07:05:43;;;;;;;;;;;16.30;95.90;;;;;;5062137;28;19972;-67
2022/06/20 07:08:13;;;;;;;;;;;16.00;97.50;;;;;;5064274;28;20039;-66
2022/06/20 07:10:44;;;;;;;;;;;15.70;98.30;;;;;;5062949;28;19936;-67
2022/06/20 07:13:14;;;;;;;;;;;15.90;99.20;;;;;;5062834;28;20012;-67
2022/06/20 07:15:41;;;;;;;;;;;16.40;97.90;;;;;;5063267;28;20478;-65
2022/06/20 07:18:17;;;;;;;;;;;16.30;97.70;;;;;;5062975;28;19929;-66
2022/06/20 07:20:46;;;;;;;;;;;16.40;97.50;;;;;;5067266;28;22418;-66
2022/06/20 07:23:14;;;;;;;;;;;16.30;96.90;;;;;;5063633;28;19982;-68
2022/06/20 07:25:43;;;;;;;;;;;16.90;96.50;;;;;;5068857;28;20011;-66
2022/06/20 07:28:15;;;;;;;;;;;18.30;91.00;;;;;;5069452;28;19932;-65
2022/06/20 07:30:44;;;;;;;;;;;18.70;86.90;;;;;;5055432;28;19932;-66
2022/06/20 07:33:14;;;;;;;;;;;18.80;82.40;;;;;;5061823;28;19986;-66
2022/06/20 07:35:43;;;;;;;;;;;17.60;88.10;;;;;;5064649;28;19924;-66
2022/06/20 07:38:13;;;;;;;;;;;18.40;87.90;;;;;;5065636;28;20011;-66
2022/06/20 07:40:42;;;;;;;;;;;18.80;83.40;;;;;;5063207;28;20454;-67
2022/06/20 07:43:13;;;;;;;;;;;18.60;83.50;;;;;;5071437;28;20352;-66
2022/06/20 07:45:41;;;;;;;;;;;19.30;80.10;;;;;;5063603;28;19963;-67
2022/06/20 07:48:12;;;;;;;;;;;18.40;83.10;;;;;;5057133;28;19975;-64
2022/06/20 07:50:42;;;;;;;;;;;18.80;83.80;;;;;;5066661;28;19971;-67
2022/06/20 07:53:11;;;;;;;;;;;18.40;82.30;;;;;;5065784;28;20355;-67
2022/06/20 07:55:41;;;;;;;;;;;17.50;82.70;;;;;;5070790;28;19931;-67
2022/06/20 07:58:11;;;;;;;;;;;17.30;88.10;;;;;;5064518;28;19999;-67
2022/06/20 08:00:42;;;;;;;;;;;18.10;84.60;;;;;;5066521;28;19958;-66
2022/06/20 08:03:12;;;;;;;;;;;18.70;85.30;;;;;;5063817;28;19932;-67
2022/06/20 08:05:41;;;;;;;;;;;19.60;82.10;;;;;;5068810;28;20016;-67
2022/06/20 08:08:10;;;;;;;;;;;19.00;81.50;;;;;;5064929;28;20379;-66
2022/06/20 08:10:39;;;;;;;;;;;19.00;80.30;;;;;;5069680;28;20031;-67
2022/06/20 08:13:10;;;;;;;;;;;19.80;75.80;;;;;;5068408;28;20539;-67
2022/06/20 08:15:39;;;;;;;;;;;19.80;72.30;;;;;;5066609;28;19938;-66
2022/06/20 08:18:06;;;;;;;;;;;19.90;63.20;;;;;;5055198;28;20395;-66
2022/06/20 08:20:34;;;;;;;;;;;20.50;60.20;;;;;;5061731;28;19924;-66
2022/06/20 08:23:03;;;;;;;;;;;19.90;57.40;;;;;;5067223;28;19924;-66
2022/06/20 08:25:34;;;;;;;;;;;21.00;57.30;;;;;;5056907;28;19987;-68
2022/06/20 08:28:05;;;;;;;;;;;21.10;53.70;;;;;;5065533;28;20357;-67
2022/06/20 08:30:37;;;;;;;;;;;20.10;56.50;;;;;;5070716;28;19989;-67
2022/06/20 08:33:06;;;;;;;;;;;20.80;56.70;;;;;;5064434;28;19978;-67
2022/06/20 08:35:35;;;;;;;;;;;21.80;53.70;;;;;;5064407;28;19924;-67
2022/06/20 08:38:05;;;;;;;;;;;23.60;51.00;;;;;;5058040;28;19931;-68
2022/06/20 08:40:47;;;;;;;;;;;23.10;50.50;;;;;;5060989;28;20403;-68
2022/06/20 08:43:46;;;;;;;;;;;21.10;52.00;;;;;;5062812;28;19933;-66
2022/06/20 08:46:28;;;;;;;;;;;19.70;54.30;;;;;;5023210;28;19973;-67
2022/06/20 08:49:13;;;;;;;;;;;18.30;59.30;;;;;;5012437;28;19936;-67
2022/06/20 08:52:08;;;;;;;;;;;18.50;60.50;;;;;;5051580;28;19979;-67
2022/06/20 08:54:46;;;;;;;;;;;18.80;57.30;;;;;;5066081;28;20310;-67
2022/06/20 08:57:16;;;;;;;;;;;18.60;57.10;;;;;;5061025;28;20302;-66
2022/06/20 08:59:50;;;;;;;;;;;18.70;60.50;;;;;;5064509;28;20381;-66
2022/06/20 09:02:28;;;;;;;;;;;20.60;58.20;;;;;;5058574;28;19971;-66
2022/06/20 09:05:02;;;;;;;;;;;22.10;51.30;;;;;;5063290;28;20007;-66
2022/06/20 09:07:42;;;;;;;;;;;19.50;53.10;;;;;;5064743;28;20118;-66
2022/06/20 09:10:20;;;;;;;;;;;19.60;54.10;;;;;;5066403;28;20003;-66
2022/06/20 09:12:59;;;;;;;;;;;18.80;57.10;;;;;;5062640;28;19951;-66
2022/06/20 09:15:33;;;;;;;;;;;19.60;55.90;;;;;;5068147;28;20047;-68
2022/06/20 09:18:02;;;;;;;;;;;20.10;51.70;;;;;;5056449;28;20368;-68
2022/06/20 09:20:35;;;;;;;;;;;20.70;53.50;;;;;;5053956;28;20510;-68
2022/06/20 09:23:10;;;;;;;;;;;22.40;47.80;;;;;;5058598;28;19991;-68
2022/06/20 09:25:41;;;;;;;;;;;22.00;49.40;;;;;;5051397;28;20019;-69
2022/06/20 09:28:16;;;;;;;;;;;22.90;48.10;;;;;;5053838;28;19979;-68
2022/06/20 09:30:46;;;;;;;;;;;23.00;44.80;;;;;;5065032;28;20025;-68
2022/06/20 09:33:24;;;;;;;;;;;22.10;45.70;;;;;;5058841;28;20023;-68
2022/06/20 09:36:08;;;;;;;;;;;22.70;45.30;;;;;;5060237;28;19931;-68
2022/06/20 09:38:44;;;;;;;;;;;20.60;49.00;;;;;;5062475;28;20011;-69
2022/06/20 09:41:17;;;;;;;;;;;20.30;50.20;;;;;;5061303;28;19967;-68
2022/06/20 09:43:48;;;;;;;;;;;20.40;48.10;;;;;;5059386;28;19925;-68
2022/06/20 09:46:18;;;;;;;;;;;20.30;50.10;;;;;;5058447;28;19963;-68
2022/06/20 09:48:47;;;;;;;;;;;20.40;49.90;;;;;;5063878;28;20040;-69
2022/06/20 09:51:18;;;;;;;;;;;19.50;52.30;;;;;;5065972;28;20364;-69
2022/06/20 09:53:51;;;;;;;;;;;19.30;53.10;;;;;;5062483;28;19925;-70
2022/06/20 09:56:22;;;;;;;;;;;19.20;52.70;;;;;;5060815;28;19974;-70
2022/06/20 09:58:55;;;;;;;;;;;20.30;50.40;;;;;;5067742;28;20095;-70
2022/06/20 10:01:25;;;;;;;;;;;21.50;48.70;;;;;;5058335;28;19925;-70
2022/06/20 10:03:54;;;;;;;;;;;21.70;46.70;;;;;;5062077;28;20020;-70
2022/06/20 10:06:25;;;;;;;;;;;20.80;46.30;;;;;;5065431;28;20142;-69
2022/06/20 10:08:58;;;;;;;;;;;22.90;42.30;;;;;;5066521;28;19963;-69
2022/06/20 10:11:30;;;;;;;;;;;22.40;41.70;;;;;;5063693;28;19970;-69
2022/06/20 10:14:01;;;;;;;;;;;20.70;45.50;;;;;;5061961;28;19954;-69
2022/06/20 10:16:30;;;;;;;;;;;20.10;49.80;;;;;;5061286;28;20464;-68
2022/06/20 10:18:59;;;;;;;;;;;20.00;50.00;;;;;;5065093;28;19929;-69
2022/06/20 10:21:29;;;;;;;;;;;19.50;51.80;;;;;;5059983;28;20455;-68
2022/06/20 10:24:10;;;;;;;;;;;20.30;51.50;;;;;;5054767;28;19947;-70
2022/06/20 10:26:44;;;;;;;;;;;20.30;49.50;;;;;;5064368;28;19935;-69
2022/06/20 10:29:16;;;;;;;;;;;21.10;46.30;;;;;;5066610;28;19967;-69
2022/06/20 10:31:44;;;;;;;;;;;21.80;43.20;;;;;;5065239;28;20007;-69
2022/06/20 10:34:14;;;;;;;;;;;20.60;45.20;;;;;;5065752;28;19967;-70
2022/06/20 10:36:47;;;;;;;;;;;19.60;47.00;;;;;;5058136;28;20047;-69
2022/06/20 10:39:21;;;;;;;;;;;19.70;45.90;;;;;;5054178;28;19936;-68
2022/06/20 10:41:53;;;;;;;;;;;20.70;46.90;;;;;;5061983;28;20010;-69
2022/06/20 10:44:22;;;;;;;;;;;20.90;44.30;;;;;;5062514;28;19964;-68
2022/06/20 10:46:53;;;;;;;;;;;20.90;45.00;;;;;;5060001;28;19947;-69
2022/06/20 10:49:35;;;;;;;;;;;20.90;44.60;;;;;;5056832;28;19972;-69
2022/06/20 10:52:08;;;;;;;;;;;20.10;45.80;;;;;;5055751;28;20431;-69
2022/06/20 10:54:43;;;;;;;;;;;20.60;44.20;;;;;;5067086;28;19960;-69
2022/06/20 10:57:14;;;;;;;;;;;20.30;42.20;;;;;;5066129;28;19924;-69
2022/06/20 10:59:46;;;;;;;;;;;21.00;42.40;;;;;;5061513;28;20439;-68
2022/06/20 11:02:21;;;;;;;;;;;20.10;42.20;;;;;;5066964;28;20383;-69
2022/06/20 11:04:58;;;;;;;;;;;20.10;42.90;;;;;;5063718;28;19929;-69
2022/06/20 11:07:28;;;;;;;;;;;20.70;44.30;;;;;;5063715;28;19964;-68
2022/06/20 11:10:14;;;;;;;;;;;21.00;42.10;;;;;;5065317;28;20005;-69
2022/06/20 11:12:51;;;;;;;;;;;21.00;43.80;;;;;;5049696;28;20024;-69
2022/06/20 11:15:21;;;;;;;;;;;21.40;41.30;;;;;;5049529;28;19931;-69
2022/06/20 11:17:52;;;;;;;;;;;21.10;41.50;;;;;;5062750;28;19925;-69
2022/06/20 11:20:22;;;;;;;;;;;21.50;41.10;;;;;;5065286;28;20026;-68
2022/06/20 11:22:50;;;;;;;;;;;20.90;39.70;;;;;;5054125;28;19931;-69
2022/06/20 11:25:23;;;;;;;;;;;20.00;41.80;;;;;;5068658;28;19930;-68
2022/06/20 11:28:00;;;;;;;;;;;20.30;40.60;;;;;;5067913;28;19970;-69
2022/06/20 11:30:32;;;;;;;;;;;20.10;42.80;;;;;;5065468;28;20438;-69
2022/06/20 11:33:16;;;;;;;;;;;20.70;44.90;;;;;;5065466;28;20362;-68
2022/06/20 11:35:46;;;;;;;;;;;21.20;43.30;;;;;;5070623;28;20636;-69
2022/06/20 11:38:20;;;;;;;;;;;21.30;42.60;;;;;;5058850;28;20350;-68
2022/06/20 11:40:52;;;;;;;;;;;21.20;42.20;;;;;;5065814;28;20391;-68
2022/06/20 11:43:27;;;;;;;;;;;21.30;42.20;;;;;;5071797;28;19946;-68
2022/06/20 11:45:58;;;;;;;;;;;20.40;42.40;;;;;;5068844;28;21173;-69
2022/06/20 11:48:30;;;;;;;;;;;20.30;42.90;;;;;;5064676;28;20303;-70
2022/06/20 11:51:03;;;;;;;;;;;20.80;44.10;;;;;;5065668;28;19925;-68
2022/06/20 11:53:41;;;;;;;;;;;21.00;43.80;;;;;;5070847;28;20418;-68
2022/06/20 11:56:14;;;;;;;;;;;21.30;42.30;;;;;;5067282;28;20427;-70
2022/06/20 11:58:57;;;;;;;;;;;21.30;41.70;;;;;;5059880;28;19924;-68
2022/06/20 12:01:27;;;;;;;;;;;21.40;42.10;;;;;;5061301;28;19947;-68
2022/06/20 12:03:57;;;;;;;;;;;21.70;40.40;;;;;;5065881;28;20023;-69
2022/06/20 12:06:25;;;;;;;;;;;21.80;39.20;;;;;;5063349;28;20702;-69
2022/06/20 12:08:53;;;;;;;;;;;21.60;38.80;;;;;;5059719;28;20368;-69
2022/06/20 12:14:24;;;;;;;;;;;20.40;41.20;;;;;;5079595;27;19931;-68
2022/06/20 12:16:57;;;;;;;;;;;20.70;41.10;;;;;;5065512;28;19928;-69
2022/06/20 12:25:06;;;;;;;;;;;21.10;39.10;;;;;;5069169;28;19939;-69
2022/06/20 12:27:33;;;;;;;;;;;20.70;39.80;;;;;;5066528;28;19928;-69
2022/06/20 12:30:01;;;;;;;;;;;21.10;40.40;;;;;;5066065;28;20165;-69
2022/06/20 12:32:29;;;;;;;;;;;21.40;40.20;;;;;;5065314;28;20014;-69
2022/06/20 12:35:00;;;;;;;;;;;21.00;39.90;;;;;;5066905;28;19936;-69
2022/06/20 12:37:29;;;;;;;;;;;20.90;39.40;;;;;;5065139;28;19977;-70
2022/06/20 12:39:59;;;;;;;;;;;21.50;37.10;;;;;;5066224;28;20028;-69
2022/06/20 12:42:31;;;;;;;;;;;20.70;39.50;;;;;;5066255;28;20079;-69
2022/06/20 12:45:03;;;;;;;;;;;20.20;41.00;;;;;;5065845;28;20403;-69
2022/06/20 12:47:45;;;;;;;;;;;20.10;41.50;;;;;;5074936;28;19931;-69
2022/06/20 12:50:19;;;;;;;;;;;20.40;41.10;;;;;;5068545;28;19924;-70
2022/06/20 12:52:51;;;;;;;;;;;20.80;40.70;;;;;;5064715;28;19935;-69
2022/06/20 12:55:24;;;;;;;;;;;20.40;43.10;;;;;;5065498;28;19935;-68
2022/06/20 12:57:57;;;;;;;;;;;20.80;41.20;;;;;;5064853;28;20063;-70
2022/06/20 13:00:30;;;;;;;;;;;20.60;41.10;;;;;;5068658;28;19939;-66
2022/06/20 13:03:24;;;;;;;;;;;21.60;38.70;;;;;;5066068;28;19932;-67
2022/06/20 13:05:58;;;;;;;;;;;22.20;38.00;;;;;;5064284;28;20308;-67
2022/06/20 13:08:37;;;;;;;;;;;22.80;37.60;;;;;;5066323;28;19924;-67
2022/06/20 13:11:12;;;;;;;;;;;22.80;36.60;;;;;;5064786;28;19928;-68
2022/06/20 13:13:50;;;;;;;;;;;22.90;35.00;;;;;;5081086;28;20001;-67
2022/06/20 13:16:20;;;;;;;;;;;22.30;35.40;;;;;;5087009;28;20020;-68
2022/06/20 13:18:53;;;;;;;;;;;21.90;35.40;;;;;;5083820;28;19955;-68
2022/06/20 13:21:24;;;;;;;;;;;21.20;39.10;;;;;;5082447;28;20106;-68
2022/06/20 13:23:57;;;;;;;;;;;20.70;39.80;;;;;;5080276;28;19928;-68
2022/06/20 13:26:31;;;;;;;;;;;21.00;39.40;;;;;;5070817;28;19931;-69
2022/06/20 13:29:04;;;;;;;;;;;20.60;39.90;;;;;;5071619;28;20501;-69
2022/06/20 13:31:33;;;;;;;;;;;20.00;40.40;;;;;;5071092;28;21221;-69
2022/06/20 13:34:05;;;;;;;;;;;19.90;43.30;;;;;;5072367;28;19938;-69
2022/06/20 13:36:40;;;;;;;;;;;20.20;42.50;;;;;;5071382;28;19939;-68
2022/06/20 13:39:15;;;;;;;;;;;20.80;42.50;;;;;;5071749;28;20058;-67
2022/06/20 13:41:44;;;;;;;;;;;21.40;40.00;;;;;;5071863;28;20174;-70
2022/06/20 13:44:18;;;;;;;;;;;22.00;37.70;;;;;;5071970;28;19932;-68
2022/06/20 13:46:47;;;;;;;;;;;21.80;37.20;;;;;;5070585;28;20006;-69
2022/06/20 13:49:18;;;;;;;;;;;21.50;37.70;;;;;;5071016;28;20011;-69
2022/06/20 13:51:47;;;;;;;;;;;20.60;40.10;;;;;;5070756;28;20395;-69
2022/06/20 13:54:19;;;;;;;;;;;20.70;39.70;;;;;;5072156;28;19941;-69
2022/06/20 13:56:53;;;;;;;;;;;20.50;40.30;;;;;;5072695;28;20035;-68
2022/06/20 13:59:22;;;;;;;;;;;20.90;39.80;;;;;;5071177;28;20302;-69
2022/06/20 14:01:57;;;;;;;;;;;21.40;39.20;;;;;;5075686;28;20035;-68
2022/06/20 14:04:26;;;;;;;;;;;22.00;39.70;;;;;;5072327;28;19932;-69
2022/06/20 14:06:55;;;;;;;;;;;21.90;38.40;;;;;;5072441;28;19931;-69
2022/06/20 14:09:24;;;;;;;;;;;22.30;37.20;;;;;;5072425;28;20034;-68
2022/06/20 14:11:54;;;;;;;;;;;22.30;38.80;;;;;;5072498;28;20437;-68
2022/06/20 14:14:23;;;;;;;;;;;21.70;38.50;;;;;;5073108;28;20136;-68
2022/06/20 14:16:52;;;;;;;;;;;22.10;39.00;;;;;;5087611;28;20390;-68
2022/06/20 14:19:21;;;;;;;;;;;21.60;40.00;;;;;;5074745;28;20019;-68
2022/06/20 14:21:51;;;;;;;;;;;20.90;42.70;;;;;;5074182;28;19998;-67
2022/06/20 14:24:19;;;;;;;;;;;20.70;41.60;;;;;;5080991;28;20440;-68
2022/06/20 14:26:47;;;;;;;;;;;20.80;42.00;;;;;;5075198;28;20063;-67
2022/06/20 14:29:18;;;;;;;;;;;21.40;40.90;;;;;;5075527;28;20375;-67
2022/06/20 14:31:51;;;;;;;;;;;21.30;39.20;;;;;;5076726;28;19946;-67
2022/06/20 14:34:22;;;;;;;;;;;21.70;39.20;;;;;;5077205;28;19923;-69
2022/06/20 14:36:53;;;;;;;;;;;21.60;39.40;;;;;;5076261;28;20737;-69
2022/06/20 14:39:21;;;;;;;;;;;20.70;42.80;;;;;;5073534;28;19932;-68
2022/06/20 14:41:54;;;;;;;;;;;20.40;42.80;;;;;;5089942;28;19963;-68
2022/06/20 14:44:25;;;;;;;;;;;20.90;41.20;;;;;;5084877;28;20377;-68
2022/06/20 14:46:57;;;;;;;;;;;20.50;41.90;;;;;;5083276;28;19928;-68
2022/06/20 14:49:26;;;;;;;;;;;20.50;41.70;;;;;;5086149;28;19924;-69